sensor_id;sensor_type;location;lat;lon;timestamp;P1;durP1;ratioP1;P2;durP2;ratioP2
12267;SDS011;6196;48.398;11.736;2022-09-06T00:00:23;4.80;;;4.37;;
12267;SDS011;6196;48.398;11.736;2022-09-06T00:02:50;5.13;;;4.70;;
12267;SDS011;6196;48.398;11.736;2022-09-06T00:05:18;5.30;;;4.80;;
12267;SDS011;6196;48.398;11.736;2022-09-06T00:07:44;4.63;;;4.27;;
12267;SDS011;6196;48.398;11.736;2022-09-06T00:10:11;5.47;;;4.97;;
12267;SDS011;6196;48.398;11.736;2022-09-06T00:12:39;6.23;;;4.87;;
12267;SDS011;6196;48.398;11.736;2022-09-06T00:15:06;5.43;;;4.93;;
12267;SDS011;6196;48.398;11.736;2022-09-06T00:17:34;5.73;;;5.07;;
12267;SDS011;6196;48.398;11.736;2022-09-06T00:20:01;5.33;;;4.93;;
12267;SDS011;6196;48.398;11.736;2022-09-06T00:22:29;5.20;;;4.80;;
12267;SDS011;6196;48.398;11.736;2022-09-06T00:24:56;5.43;;;4.90;;
12267;SDS011;6196;48.398;11.736;2022-09-06T00:27:23;5.97;;;5.47;;
12267;SDS011;6196;48.398;11.736;2022-09-06T00:29:50;5.40;;;4.90;;
12267;SDS011;6196;48.398;11.736;2022-09-06T00:32:17;6.30;;;5.57;;
12267;SDS011;6196;48.398;11.736;2022-09-06T00:34:44;5.93;;;5.20;;
12267;SDS011;6196;48.398;11.736;2022-09-06T00:37:10;5.40;;;5.00;;
12267;SDS011;6196;48.398;11.736;2022-09-06T00:39:37;5.80;;;5.20;;
12267;SDS011;6196;48.398;11.736;2022-09-06T00:42:08;5.37;;;4.97;;
12267;SDS011;6196;48.398;11.736;2022-09-06T00:44:36;5.57;;;5.07;;
12267;SDS011;6196;48.398;11.736;2022-09-06T00:47:04;5.70;;;5.17;;
12267;SDS011;6196;48.398;11.736;2022-09-06T00:49:37;7.13;;;5.87;;
12267;SDS011;6196;48.398;11.736;2022-09-06T00:52:16;6.03;;;5.53;;
12267;SDS011;6196;48.398;11.736;2022-09-06T00:54:45;8.30;;;5.63;;
12267;SDS011;6196;48.398;11.736;2022-09-06T00:57:13;5.97;;;5.47;;
12267;SDS011;6196;48.398;11.736;2022-09-06T00:59:42;5.97;;;5.57;;
12267;SDS011;6196;48.398;11.736;2022-09-06T01:02:11;6.27;;;5.77;;
12267;SDS011;6196;48.398;11.736;2022-09-06T01:04:39;6.67;;;5.47;;
12267;SDS011;6196;48.398;11.736;2022-09-06T01:11:18;5.93;;;5.43;;
12267;SDS011;6196;48.398;11.736;2022-09-06T01:39:35;6.80;;;6.20;;
12267;SDS011;6196;48.398;11.736;2022-09-06T01:42:23;7.40;;;6.80;;
12267;SDS011;6196;48.398;11.736;2022-09-06T01:45:00;7.53;;;6.83;;
12267;SDS011;6196;48.398;11.736;2022-09-06T01:56:20;8.53;;;7.73;;
12267;SDS011;6196;48.398;11.736;2022-09-06T02:02:23;8.67;;;7.90;;
12267;SDS011;6196;48.398;11.736;2022-09-06T02:05:17;9.53;;;8.73;;
12267;SDS011;6196;48.398;11.736;2022-09-06T02:07:54;10.37;;;9.33;;
12267;SDS011;6196;48.398;11.736;2022-09-06T02:10:32;10.00;;;9.03;;
12267;SDS011;6196;48.398;11.736;2022-09-06T02:13:38;10.10;;;9.30;;
12267;SDS011;6196;48.398;11.736;2022-09-06T02:16:19;9.37;;;8.57;;
12267;SDS011;6196;48.398;11.736;2022-09-06T02:18:52;9.97;;;9.07;;
12267;SDS011;6196;48.398;11.736;2022-09-06T02:21:23;9.83;;;8.90;;
12267;SDS011;6196;48.398;11.736;2022-09-06T02:23:56;10.47;;;9.47;;
12267;SDS011;6196;48.398;11.736;2022-09-06T02:26:31;9.63;;;8.73;;
12267;SDS011;6196;48.398;11.736;2022-09-06T02:29:03;10.27;;;9.27;;
12267;SDS011;6196;48.398;11.736;2022-09-06T02:31:31;9.53;;;8.73;;
12267;SDS011;6196;48.398;11.736;2022-09-06T02:34:09;9.27;;;8.47;;
12267;SDS011;6196;48.398;11.736;2022-09-06T02:36:40;9.13;;;8.23;;
12267;SDS011;6196;48.398;11.736;2022-09-06T02:39:07;10.40;;;9.50;;
12267;SDS011;6196;48.398;11.736;2022-09-06T02:41:34;9.73;;;8.83;;
12267;SDS011;6196;48.398;11.736;2022-09-06T02:44:01;9.87;;;8.97;;
12267;SDS011;6196;48.398;11.736;2022-09-06T02:46:28;10.70;;;9.80;;
12267;SDS011;6196;48.398;11.736;2022-09-06T02:48:55;11.67;;;10.57;;
12267;SDS011;6196;48.398;11.736;2022-09-06T02:51:22;11.20;;;10.23;;
12267;SDS011;6196;48.398;11.736;2022-09-06T02:53:49;12.23;;;11.07;;
12267;SDS011;6196;48.398;11.736;2022-09-06T02:56:16;11.17;;;10.17;;
12267;SDS011;6196;48.398;11.736;2022-09-06T02:58:43;12.67;;;11.47;;
12267;SDS011;6196;48.398;11.736;2022-09-06T03:01:10;12.77;;;11.47;;
12267;SDS011;6196;48.398;11.736;2022-09-06T03:03:37;13.87;;;12.17;;
12267;SDS011;6196;48.398;11.736;2022-09-06T03:06:04;11.30;;;10.30;;
12267;SDS011;6196;48.398;11.736;2022-09-06T03:08:31;12.43;;;11.23;;
12267;SDS011;6196;48.398;11.736;2022-09-06T03:10:59;13.27;;;11.97;;
12267;SDS011;6196;48.398;11.736;2022-09-06T03:13:26;14.20;;;12.90;;
12267;SDS011;6196;48.398;11.736;2022-09-06T03:15:54;13.33;;;12.13;;
12267;SDS011;6196;48.398;11.736;2022-09-06T03:18:24;14.40;;;13.10;;
12267;SDS011;6196;48.398;11.736;2022-09-06T03:20:53;15.97;;;12.87;;
12267;SDS011;6196;48.398;11.736;2022-09-06T03:23:22;13.43;;;12.23;;
12267;SDS011;6196;48.398;11.736;2022-09-06T03:25:51;13.60;;;12.23;;
12267;SDS011;6196;48.398;11.736;2022-09-06T03:28:19;13.27;;;11.97;;
12267;SDS011;6196;48.398;11.736;2022-09-06T03:30:47;14.53;;;13.03;;
12267;SDS011;6196;48.398;11.736;2022-09-06T03:33:16;12.63;;;11.43;;
12267;SDS011;6196;48.398;11.736;2022-09-06T03:35:51;13.40;;;12.20;;
12267;SDS011;6196;48.398;11.736;2022-09-06T03:38:24;13.53;;;12.20;;
12267;SDS011;6196;48.398;11.736;2022-09-06T03:40:53;13.63;;;12.30;;
12267;SDS011;6196;48.398;11.736;2022-09-06T03:43:21;13.40;;;12.07;;
12267;SDS011;6196;48.398;11.736;2022-09-06T03:45:50;13.77;;;12.53;;
12267;SDS011;6196;48.398;11.736;2022-09-06T03:48:20;13.40;;;12.13;;
12267;SDS011;6196;48.398;11.736;2022-09-06T03:50:50;14.30;;;12.80;;
12267;SDS011;6196;48.398;11.736;2022-09-06T03:53:21;14.13;;;12.83;;
12267;SDS011;6196;48.398;11.736;2022-09-06T03:55:50;13.83;;;12.63;;
12267;SDS011;6196;48.398;11.736;2022-09-06T03:58:19;14.00;;;12.60;;
12267;SDS011;6196;48.398;11.736;2022-09-06T04:00:48;13.20;;;11.90;;
12267;SDS011;6196;48.398;11.736;2022-09-06T04:03:25;14.30;;;13.00;;
12267;SDS011;6196;48.398;11.736;2022-09-06T04:05:52;15.57;;;14.07;;
12267;SDS011;6196;48.398;11.736;2022-09-06T04:08:19;15.27;;;13.97;;
12267;SDS011;6196;48.398;11.736;2022-09-06T04:10:48;15.07;;;13.67;;
12267;SDS011;6196;48.398;11.736;2022-09-06T04:13:17;16.70;;;15.00;;
12267;SDS011;6196;48.398;11.736;2022-09-06T04:15:45;15.70;;;14.13;;
12267;SDS011;6196;48.398;11.736;2022-09-06T04:18:13;16.30;;;14.77;;
12267;SDS011;6196;48.398;11.736;2022-09-06T04:20:40;15.10;;;13.67;;
12267;SDS011;6196;48.398;11.736;2022-09-06T04:23:07;15.20;;;13.67;;
12267;SDS011;6196;48.398;11.736;2022-09-06T04:25:35;14.50;;;13.10;;
12267;SDS011;6196;48.398;11.736;2022-09-06T04:28:02;15.43;;;14.03;;
12267;SDS011;6196;48.398;11.736;2022-09-06T04:30:29;14.57;;;13.17;;
12267;SDS011;6196;48.398;11.736;2022-09-06T04:32:56;14.40;;;13.10;;
12267;SDS011;6196;48.398;11.736;2022-09-06T04:35:23;15.43;;;13.97;;
12267;SDS011;6196;48.398;11.736;2022-09-06T04:37:50;14.53;;;13.13;;
12267;SDS011;6196;48.398;11.736;2022-09-06T04:40:17;15.67;;;14.37;;
12267;SDS011;6196;48.398;11.736;2022-09-06T04:42:43;16.43;;;14.93;;
12267;SDS011;6196;48.398;11.736;2022-09-06T04:45:10;16.67;;;14.97;;
12267;SDS011;6196;48.398;11.736;2022-09-06T04:47:37;15.20;;;13.70;;
12267;SDS011;6196;48.398;11.736;2022-09-06T04:50:04;15.57;;;14.17;;
12267;SDS011;6196;48.398;11.736;2022-09-06T04:52:31;16.77;;;15.20;;
12267;SDS011;6196;48.398;11.736;2022-09-06T04:54:58;17.13;;;15.33;;
12267;SDS011;6196;48.398;11.736;2022-09-06T04:57:25;16.97;;;15.27;;
12267;SDS011;6196;48.398;11.736;2022-09-06T04:59:52;16.17;;;14.67;;
12267;SDS011;6196;48.398;11.736;2022-09-06T05:02:19;17.13;;;15.37;;
12267;SDS011;6196;48.398;11.736;2022-09-06T05:04:46;13.93;;;12.63;;
12267;SDS011;6196;48.398;11.736;2022-09-06T05:07:13;12.30;;;11.20;;
12267;SDS011;6196;48.398;11.736;2022-09-06T05:09:39;12.60;;;11.50;;
12267;SDS011;6196;48.398;11.736;2022-09-06T05:12:06;12.97;;;11.67;;
12267;SDS011;6196;48.398;11.736;2022-09-06T05:14:33;12.50;;;11.40;;
12267;SDS011;6196;48.398;11.736;2022-09-06T05:17:00;10.70;;;9.70;;
12267;SDS011;6196;48.398;11.736;2022-09-06T05:19:27;8.37;;;7.53;;
12267;SDS011;6196;48.398;11.736;2022-09-06T05:21:54;7.10;;;6.47;;
12267;SDS011;6196;48.398;11.736;2022-09-06T05:24:21;6.83;;;6.13;;
12267;SDS011;6196;48.398;11.736;2022-09-06T05:26:47;8.30;;;7.50;;
12267;SDS011;6196;48.398;11.736;2022-09-06T05:29:14;9.20;;;8.07;;
12267;SDS011;6196;48.398;11.736;2022-09-06T05:31:41;10.10;;;9.20;;
12267;SDS011;6196;48.398;11.736;2022-09-06T05:34:08;12.73;;;11.63;;
12267;SDS011;6196;48.398;11.736;2022-09-06T05:36:35;13.13;;;11.87;;
12267;SDS011;6196;48.398;11.736;2022-09-06T05:39:03;11.33;;;10.23;;
12267;SDS011;6196;48.398;11.736;2022-09-06T05:41:30;10.80;;;9.70;;
12267;SDS011;6196;48.398;11.736;2022-09-06T05:43:58;9.87;;;8.97;;
12267;SDS011;6196;48.398;11.736;2022-09-06T05:46:25;14.13;;;12.87;;
12267;SDS011;6196;48.398;11.736;2022-09-06T05:48:53;15.90;;;12.63;;
12267;SDS011;6196;48.398;11.736;2022-09-06T05:51:21;13.60;;;12.37;;
12267;SDS011;6196;48.398;11.736;2022-09-06T05:53:47;14.70;;;13.40;;
12267;SDS011;6196;48.398;11.736;2022-09-06T05:56:15;9.27;;;8.37;;
12267;SDS011;6196;48.398;11.736;2022-09-06T05:58:42;9.43;;;7.97;;
12267;SDS011;6196;48.398;11.736;2022-09-06T06:01:19;10.20;;;9.30;;
12267;SDS011;6196;48.398;11.736;2022-09-06T06:03:53;17.27;;;15.70;;
12267;SDS011;6196;48.398;11.736;2022-09-06T06:06:27;17.43;;;14.53;;
12267;SDS011;6196;48.398;11.736;2022-09-06T06:08:56;18.20;;;16.50;;
12267;SDS011;6196;48.398;11.736;2022-09-06T06:11:24;21.27;;;19.37;;
12267;SDS011;6196;48.398;11.736;2022-09-06T06:13:52;22.67;;;20.57;;
12267;SDS011;6196;48.398;11.736;2022-09-06T06:16:19;22.43;;;20.33;;
12267;SDS011;6196;48.398;11.736;2022-09-06T06:18:47;22.87;;;20.70;;
12267;SDS011;6196;48.398;11.736;2022-09-06T06:21:18;19.53;;;17.73;;
12267;SDS011;6196;48.398;11.736;2022-09-06T06:23:48;18.97;;;17.27;;
12267;SDS011;6196;48.398;11.736;2022-09-06T06:26:20;18.00;;;16.13;;
12267;SDS011;6196;48.398;11.736;2022-09-06T06:28:48;16.37;;;14.17;;
12267;SDS011;6196;48.398;11.736;2022-09-06T06:31:15;15.33;;;13.90;;
12267;SDS011;6196;48.398;11.736;2022-09-06T06:33:42;13.40;;;12.20;;
12267;SDS011;6196;48.398;11.736;2022-09-06T06:38:42;15.37;;;13.87;;
12267;SDS011;6196;48.398;11.736;2022-09-06T06:41:11;14.47;;;13.27;;
12267;SDS011;6196;48.398;11.736;2022-09-06T06:43:40;16.17;;;14.60;;
12267;SDS011;6196;48.398;11.736;2022-09-06T06:46:14;15.47;;;14.00;;
12267;SDS011;6196;48.398;11.736;2022-09-06T06:48:43;14.60;;;13.23;;
12267;SDS011;6196;48.398;11.736;2022-09-06T06:51:12;12.77;;;11.57;;
12267;SDS011;6196;48.398;11.736;2022-09-06T06:53:42;11.73;;;10.80;;
12267;SDS011;6196;48.398;11.736;2022-09-06T06:58:41;13.13;;;12.03;;
12267;SDS011;6196;48.398;11.736;2022-09-06T07:01:10;12.70;;;11.60;;
12267;SDS011;6196;48.398;11.736;2022-09-06T07:03:38;11.57;;;10.37;;
12267;SDS011;6196;48.398;11.736;2022-09-06T07:06:05;10.53;;;9.43;;
12267;SDS011;6196;48.398;11.736;2022-09-06T07:08:37;11.03;;;9.17;;
12267;SDS011;6196;48.398;11.736;2022-09-06T07:11:05;11.00;;;9.97;;
12267;SDS011;6196;48.398;11.736;2022-09-06T07:13:35;10.03;;;9.03;;
12267;SDS011;6196;48.398;11.736;2022-09-06T07:16:10;11.27;;;10.07;;
12267;SDS011;6196;48.398;11.736;2022-09-06T07:18:42;10.87;;;9.87;;
12267;SDS011;6196;48.398;11.736;2022-09-06T07:21:11;10.67;;;9.67;;
12267;SDS011;6196;48.398;11.736;2022-09-06T07:24:01;8.77;;;7.97;;
12267;SDS011;6196;48.398;11.736;2022-09-06T07:26:31;8.37;;;7.47;;
12267;SDS011;6196;48.398;11.736;2022-09-06T07:28:59;7.77;;;7.07;;
12267;SDS011;6196;48.398;11.736;2022-09-06T07:31:28;12.27;;;6.67;;
12267;SDS011;6196;48.398;11.736;2022-09-06T07:34:17;7.00;;;6.00;;
12267;SDS011;6196;48.398;11.736;2022-09-06T07:36:44;7.13;;;5.70;;
12267;SDS011;6196;48.398;11.736;2022-09-06T07:39:11;7.13;;;5.97;;
12267;SDS011;6196;48.398;11.736;2022-09-06T07:41:38;5.40;;;5.00;;
12267;SDS011;6196;48.398;11.736;2022-09-06T07:44:04;5.70;;;5.20;;
12267;SDS011;6196;48.398;11.736;2022-09-06T07:46:31;5.53;;;4.90;;
12267;SDS011;6196;48.398;11.736;2022-09-06T07:48:58;6.23;;;4.63;;
12267;SDS011;6196;48.398;11.736;2022-09-06T07:51:25;6.33;;;4.90;;
12267;SDS011;6196;48.398;11.736;2022-09-06T07:53:53;5.60;;;4.83;;
12267;SDS011;6196;48.398;11.736;2022-09-06T07:56:41;6.63;;;4.23;;
12267;SDS011;6196;48.398;11.736;2022-09-06T07:59:07;4.00;;;3.70;;
12267;SDS011;6196;48.398;11.736;2022-09-06T08:01:35;5.73;;;4.07;;
12267;SDS011;6196;48.398;11.736;2022-09-06T08:04:08;5.87;;;3.97;;
12267;SDS011;6196;48.398;11.736;2022-09-06T08:06:38;3.80;;;3.40;;
12267;SDS011;6196;48.398;11.736;2022-09-06T08:09:31;4.13;;;3.57;;
12267;SDS011;6196;48.398;11.736;2022-09-06T08:11:58;3.30;;;3.00;;
12267;SDS011;6196;48.398;11.736;2022-09-06T08:14:31;3.63;;;3.30;;
12267;SDS011;6196;48.398;11.736;2022-09-06T08:16:59;4.83;;;2.93;;
12267;SDS011;6196;48.398;11.736;2022-09-06T08:19:27;3.30;;;3.00;;
12267;SDS011;6196;48.398;11.736;2022-09-06T08:21:53;3.33;;;3.03;;
12267;SDS011;6196;48.398;11.736;2022-09-06T08:24:21;4.37;;;3.13;;
12267;SDS011;6196;48.398;11.736;2022-09-06T08:26:48;4.43;;;2.90;;
12267;SDS011;6196;48.398;11.736;2022-09-06T08:29:15;5.23;;;3.23;;
12267;SDS011;6196;48.398;11.736;2022-09-06T08:31:43;4.07;;;2.90;;
12267;SDS011;6196;48.398;11.736;2022-09-06T08:34:10;4.23;;;3.20;;
12267;SDS011;6196;48.398;11.736;2022-09-06T08:36:37;5.20;;;2.90;;
12267;SDS011;6196;48.398;11.736;2022-09-06T08:39:06;4.10;;;2.60;;
12267;SDS011;6196;48.398;11.736;2022-09-06T08:47:22;3.90;;;3.00;;
12267;SDS011;6196;48.398;11.736;2022-09-06T08:49:50;3.93;;;2.70;;
12267;SDS011;6196;48.398;11.736;2022-09-06T08:55:41;3.03;;;2.60;;
12267;SDS011;6196;48.398;11.736;2022-09-06T09:01:06;3.27;;;2.70;;
12267;SDS011;6196;48.398;11.736;2022-09-06T09:03:41;3.70;;;2.57;;
12267;SDS011;6196;48.398;11.736;2022-09-06T09:06:09;4.27;;;2.20;;
12267;SDS011;6196;48.398;11.736;2022-09-06T09:08:46;4.80;;;2.40;;
12267;SDS011;6196;48.398;11.736;2022-09-06T09:11:39;4.47;;;2.43;;
12267;SDS011;6196;48.398;11.736;2022-09-06T09:16:55;8.33;;;2.77;;
12267;SDS011;6196;48.398;11.736;2022-09-06T09:19:37;6.80;;;2.40;;
12267;SDS011;6196;48.398;11.736;2022-09-06T09:22:06;4.80;;;2.60;;
12267;SDS011;6196;48.398;11.736;2022-09-06T09:24:34;3.80;;;2.13;;
12267;SDS011;6196;48.398;11.736;2022-09-06T09:27:06;3.90;;;2.90;;
12267;SDS011;6196;48.398;11.736;2022-09-06T09:32:41;4.20;;;2.43;;
12267;SDS011;6196;48.398;11.736;2022-09-06T09:37:58;5.47;;;2.60;;
12267;SDS011;6196;48.398;11.736;2022-09-06T09:45:42;6.10;;;2.53;;
12267;SDS011;6196;48.398;11.736;2022-09-06T09:48:23;2.13;;;1.77;;
12267;SDS011;6196;48.398;11.736;2022-09-06T09:50:53;5.67;;;2.50;;
12267;SDS011;6196;48.398;11.736;2022-09-06T09:53:21;3.63;;;2.30;;
12267;SDS011;6196;48.398;11.736;2022-09-06T09:55:58;4.77;;;2.30;;
12267;SDS011;6196;48.398;11.736;2022-09-06T10:03:43;4.50;;;1.90;;
12267;SDS011;6196;48.398;11.736;2022-09-06T10:06:30;2.43;;;2.23;;
12267;SDS011;6196;48.398;11.736;2022-09-06T10:09:18;5.27;;;2.17;;
12267;SDS011;6196;48.398;11.736;2022-09-06T10:11:57;4.53;;;2.23;;
12267;SDS011;6196;48.398;11.736;2022-09-06T10:16:55;2.57;;;2.00;;
12267;SDS011;6196;48.398;11.736;2022-09-06T10:19:28;3.90;;;1.73;;
12267;SDS011;6196;48.398;11.736;2022-09-06T10:28:26;2.43;;;1.73;;
12267;SDS011;6196;48.398;11.736;2022-09-06T10:31:24;2.67;;;1.60;;
12267;SDS011;6196;48.398;11.736;2022-09-06T10:40:04;2.97;;;1.50;;
12267;SDS011;6196;48.398;11.736;2022-09-06T10:48:08;2.72;;;1.48;;
12267;SDS011;6196;48.398;11.736;2022-09-06T10:51:00;2.75;;;1.40;;
12267;SDS011;6196;48.398;11.736;2022-09-06T10:56:33;2.08;;;1.23;;
12267;SDS011;6196;48.398;11.736;2022-09-06T10:59:17;4.43;;;1.70;;
12267;SDS011;6196;48.398;11.736;2022-09-06T11:05:06;2.42;;;1.30;;
12267;SDS011;6196;48.398;11.736;2022-09-06T11:08:00;2.55;;;1.35;;
12267;SDS011;6196;48.398;11.736;2022-09-06T11:10:53;2.90;;;1.52;;
12267;SDS011;6196;48.398;11.736;2022-09-06T11:13:22;2.92;;;1.52;;
12267;SDS011;6196;48.398;11.736;2022-09-06T11:15:54;3.63;;;1.50;;
12267;SDS011;6196;48.398;11.736;2022-09-06T11:18:41;2.30;;;1.38;;
12267;SDS011;6196;48.398;11.736;2022-09-06T11:21:45;3.53;;;1.30;;
12267;SDS011;6196;48.398;11.736;2022-09-06T11:29:57;3.55;;;1.30;;
12267;SDS011;6196;48.398;11.736;2022-09-06T11:35:23;1.92;;;1.25;;
12267;SDS011;6196;48.398;11.736;2022-09-06T11:38:01;3.25;;;1.38;;
12267;SDS011;6196;48.398;11.736;2022-09-06T11:40:37;3.95;;;1.33;;
12267;SDS011;6196;48.398;11.736;2022-09-06T11:43:40;3.30;;;1.23;;
12267;SDS011;6196;48.398;11.736;2022-09-06T11:51:57;3.10;;;1.40;;
12267;SDS011;6196;48.398;11.736;2022-09-06T11:54:36;2.58;;;1.30;;
12267;SDS011;6196;48.398;11.736;2022-09-06T11:57:11;4.80;;;1.10;;
12267;SDS011;6196;48.398;11.736;2022-09-06T12:02:28;3.60;;;1.35;;
12267;SDS011;6196;48.398;11.736;2022-09-06T12:05:07;3.50;;;1.15;;
12267;SDS011;6196;48.398;11.736;2022-09-06T12:10:54;2.83;;;1.40;;
12267;SDS011;6196;48.398;11.736;2022-09-06T12:16:11;3.60;;;1.17;;
12267;SDS011;6196;48.398;11.736;2022-09-06T12:33:05;3.38;;;1.58;;
12267;SDS011;6196;48.398;11.736;2022-09-06T12:35:39;6.93;;;1.65;;
12267;SDS011;6196;48.398;11.736;2022-09-06T12:38:22;5.50;;;1.55;;
12267;SDS011;6196;48.398;11.736;2022-09-06T12:40:50;4.30;;;1.30;;
12267;SDS011;6196;48.398;11.736;2022-09-06T12:43:23;7.38;;;1.70;;
12267;SDS011;6196;48.398;11.736;2022-09-06T12:45:50;4.63;;;1.50;;
12267;SDS011;6196;48.398;11.736;2022-09-06T12:50:59;6.90;;;1.95;;
12267;SDS011;6196;48.398;11.736;2022-09-06T12:53:52;5.18;;;1.63;;
12267;SDS011;6196;48.398;11.736;2022-09-06T12:56:25;4.93;;;1.70;;
12267;SDS011;6196;48.398;11.736;2022-09-06T12:59:14;3.05;;;1.35;;
12267;SDS011;6196;48.398;11.736;2022-09-06T13:01:57;4.55;;;1.85;;
12267;SDS011;6196;48.398;11.736;2022-09-06T13:04:51;7.20;;;2.10;;
12267;SDS011;6196;48.398;11.736;2022-09-06T13:07:27;5.50;;;1.83;;
12267;SDS011;6196;48.398;11.736;2022-09-06T13:09:56;3.75;;;1.42;;
12267;SDS011;6196;48.398;11.736;2022-09-06T13:12:25;6.53;;;2.00;;
12267;SDS011;6196;48.398;11.736;2022-09-06T13:14:56;7.10;;;1.95;;
12267;SDS011;6196;48.398;11.736;2022-09-06T13:17:39;4.15;;;1.90;;
12267;SDS011;6196;48.398;11.736;2022-09-06T13:20:10;6.35;;;1.67;;
12267;SDS011;6196;48.398;11.736;2022-09-06T13:22:52;7.25;;;2.08;;
12267;SDS011;6196;48.398;11.736;2022-09-06T13:25:31;4.65;;;1.80;;
12267;SDS011;6196;48.398;11.736;2022-09-06T13:27:58;7.72;;;2.17;;
12267;SDS011;6196;48.398;11.736;2022-09-06T13:32:59;6.50;;;2.03;;
12267;SDS011;6196;48.398;11.736;2022-09-06T13:35:28;7.32;;;2.70;;
12267;SDS011;6196;48.398;11.736;2022-09-06T13:40:57;6.82;;;2.22;;
12267;SDS011;6196;48.398;11.736;2022-09-06T13:43:42;5.35;;;2.20;;
12267;SDS011;6196;48.398;11.736;2022-09-06T13:46:12;7.10;;;2.42;;
12267;SDS011;6196;48.398;11.736;2022-09-06T13:48:39;6.20;;;2.10;;
12267;SDS011;6196;48.398;11.736;2022-09-06T13:51:08;7.32;;;2.20;;
12267;SDS011;6196;48.398;11.736;2022-09-06T13:53:35;4.03;;;2.35;;
12267;SDS011;6196;48.398;11.736;2022-09-06T13:56:02;7.75;;;2.45;;
12267;SDS011;6196;48.398;11.736;2022-09-06T13:58:31;6.00;;;2.60;;
12267;SDS011;6196;48.398;11.736;2022-09-06T14:00:58;9.80;;;2.90;;
12267;SDS011;6196;48.398;11.736;2022-09-06T14:03:27;4.63;;;2.40;;
12267;SDS011;6196;48.398;11.736;2022-09-06T14:05:57;7.10;;;2.33;;
12267;SDS011;6196;48.398;11.736;2022-09-06T14:08:26;6.07;;;2.22;;
12267;SDS011;6196;48.398;11.736;2022-09-06T14:11:13;8.27;;;2.63;;
12267;SDS011;6196;48.398;11.736;2022-09-06T14:13:40;8.63;;;2.17;;
12267;SDS011;6196;48.398;11.736;2022-09-06T14:16:07;5.47;;;1.90;;
12267;SDS011;6196;48.398;11.736;2022-09-06T14:18:34;8.23;;;2.08;;
12267;SDS011;6196;48.398;11.736;2022-09-06T14:21:01;7.07;;;2.50;;
12267;SDS011;6196;48.398;11.736;2022-09-06T14:23:30;7.85;;;2.22;;
12267;SDS011;6196;48.398;11.736;2022-09-06T14:25:57;7.00;;;2.22;;
12267;SDS011;6196;48.398;11.736;2022-09-06T14:28:26;6.68;;;2.60;;
12267;SDS011;6196;48.398;11.736;2022-09-06T14:30:55;6.18;;;2.50;;
12267;SDS011;6196;48.398;11.736;2022-09-06T14:33:22;7.75;;;2.33;;
12267;SDS011;6196;48.398;11.736;2022-09-06T14:35:49;7.50;;;2.50;;
12267;SDS011;6196;48.398;11.736;2022-09-06T14:38:17;6.43;;;2.28;;
12267;SDS011;6196;48.398;11.736;2022-09-06T14:40:44;6.53;;;2.22;;
12267;SDS011;6196;48.398;11.736;2022-09-06T14:43:11;6.05;;;2.30;;
12267;SDS011;6196;48.398;11.736;2022-09-06T14:45:38;5.75;;;2.22;;
12267;SDS011;6196;48.398;11.736;2022-09-06T14:48:05;4.88;;;2.22;;
12267;SDS011;6196;48.398;11.736;2022-09-06T14:50:32;6.80;;;2.33;;
12267;SDS011;6196;48.398;11.736;2022-09-06T14:52:59;9.27;;;2.70;;
12267;SDS011;6196;48.398;11.736;2022-09-06T14:55:27;3.88;;;2.05;;
12267;SDS011;6196;48.398;11.736;2022-09-06T14:57:55;4.85;;;2.22;;
12267;SDS011;6196;48.398;11.736;2022-09-06T15:00:24;4.95;;;2.35;;
12267;SDS011;6196;48.398;11.736;2022-09-06T15:02:51;6.70;;;2.45;;
12267;SDS011;6196;48.398;11.736;2022-09-06T15:05:19;5.20;;;2.35;;
12267;SDS011;6196;48.398;11.736;2022-09-06T15:07:46;4.85;;;2.42;;
12267;SDS011;6196;48.398;11.736;2022-09-06T15:10:13;5.88;;;2.20;;
12267;SDS011;6196;48.398;11.736;2022-09-06T15:12:40;7.43;;;2.58;;
12267;SDS011;6196;48.398;11.736;2022-09-06T15:15:07;3.22;;;2.25;;
12267;SDS011;6196;48.398;11.736;2022-09-06T15:17:34;7.72;;;2.72;;
12267;SDS011;6196;48.398;11.736;2022-09-06T15:20:01;11.55;;;3.08;;
12267;SDS011;6196;48.398;11.736;2022-09-06T15:22:29;7.10;;;2.92;;
12267;SDS011;6196;48.398;11.736;2022-09-06T15:24:56;7.22;;;2.97;;
12267;SDS011;6196;48.398;11.736;2022-09-06T15:27:22;8.30;;;2.70;;
12267;SDS011;6196;48.398;11.736;2022-09-06T15:29:49;6.18;;;2.55;;
12267;SDS011;6196;48.398;11.736;2022-09-06T15:32:16;7.30;;;2.53;;
12267;SDS011;6196;48.398;11.736;2022-09-06T15:34:43;6.82;;;2.45;;
12267;SDS011;6196;48.398;11.736;2022-09-06T15:37:10;6.90;;;2.53;;
12267;SDS011;6196;48.398;11.736;2022-09-06T15:39:37;5.93;;;2.25;;
12267;SDS011;6196;48.398;11.736;2022-09-06T15:42:04;11.07;;;2.92;;
12267;SDS011;6196;48.398;11.736;2022-09-06T15:44:31;8.60;;;2.90;;
12267;SDS011;6196;48.398;11.736;2022-09-06T15:46:59;6.85;;;2.60;;
12267;SDS011;6196;48.398;11.736;2022-09-06T15:49:29;4.95;;;2.35;;
12267;SDS011;6196;48.398;11.736;2022-09-06T15:51:58;7.40;;;2.92;;
12267;SDS011;6196;48.398;11.736;2022-09-06T15:54:27;10.23;;;2.95;;
12267;SDS011;6196;48.398;11.736;2022-09-06T15:57:14;9.25;;;2.58;;
12267;SDS011;6196;48.398;11.736;2022-09-06T15:59:42;9.95;;;3.45;;
12267;SDS011;6196;48.398;11.736;2022-09-06T16:02:10;9.00;;;3.03;;
12267;SDS011;6196;48.398;11.736;2022-09-06T16:04:38;6.45;;;2.50;;
12267;SDS011;6196;48.398;11.736;2022-09-06T16:07:05;8.32;;;2.80;;
12267;SDS011;6196;48.398;11.736;2022-09-06T16:09:32;7.07;;;2.85;;
12267;SDS011;6196;48.398;11.736;2022-09-06T16:11:59;6.68;;;2.50;;
12267;SDS011;6196;48.398;11.736;2022-09-06T16:14:26;9.25;;;2.92;;
12267;SDS011;6196;48.398;11.736;2022-09-06T16:16:54;8.25;;;2.72;;
12267;SDS011;6196;48.398;11.736;2022-09-06T16:19:22;7.63;;;2.50;;
12267;SDS011;6196;48.398;11.736;2022-09-06T16:21:51;5.55;;;2.70;;
12267;SDS011;6196;48.398;11.736;2022-09-06T16:24:17;7.15;;;2.83;;
12267;SDS011;6196;48.398;11.736;2022-09-06T16:26:44;5.60;;;2.63;;
12267;SDS011;6196;48.398;11.736;2022-09-06T16:29:12;5.35;;;2.38;;
12267;SDS011;6196;48.398;11.736;2022-09-06T16:31:41;5.95;;;2.58;;
12267;SDS011;6196;48.398;11.736;2022-09-06T16:34:09;6.43;;;2.53;;
12267;SDS011;6196;48.398;11.736;2022-09-06T16:36:38;6.68;;;2.47;;
12267;SDS011;6196;48.398;11.736;2022-09-06T16:39:06;6.07;;;2.95;;
12267;SDS011;6196;48.398;11.736;2022-09-06T16:41:36;7.80;;;2.60;;
12267;SDS011;6196;48.398;11.736;2022-09-06T16:44:06;6.93;;;2.67;;
12267;SDS011;6196;48.398;11.736;2022-09-06T16:46:39;6.85;;;2.90;;
12267;SDS011;6196;48.398;11.736;2022-09-06T16:49:06;8.07;;;2.55;;
12267;SDS011;6196;48.398;11.736;2022-09-06T16:51:34;7.43;;;2.60;;
12267;SDS011;6196;48.398;11.736;2022-09-06T16:54:01;6.65;;;2.30;;
12267;SDS011;6196;48.398;11.736;2022-09-06T16:56:29;6.55;;;2.47;;
12267;SDS011;6196;48.398;11.736;2022-09-06T16:59:00;6.57;;;2.85;;
12267;SDS011;6196;48.398;11.736;2022-09-06T17:01:33;8.07;;;2.25;;
12267;SDS011;6196;48.398;11.736;2022-09-06T17:04:02;5.63;;;2.90;;
12267;SDS011;6196;48.398;11.736;2022-09-06T17:06:30;6.65;;;2.70;;
12267;SDS011;6196;48.398;11.736;2022-09-06T17:09:00;7.80;;;2.70;;
12267;SDS011;6196;48.398;11.736;2022-09-06T17:11:27;7.73;;;2.70;;
12267;SDS011;6196;48.398;11.736;2022-09-06T17:13:55;8.93;;;2.90;;
12267;SDS011;6196;48.398;11.736;2022-09-06T17:16:23;7.40;;;2.97;;
12267;SDS011;6196;48.398;11.736;2022-09-06T17:19:08;6.40;;;2.97;;
12267;SDS011;6196;48.398;11.736;2022-09-06T17:21:35;6.70;;;2.93;;
12267;SDS011;6196;48.398;11.736;2022-09-06T17:24:04;7.17;;;2.87;;
12267;SDS011;6196;48.398;11.736;2022-09-06T17:26:33;5.83;;;2.77;;
12267;SDS011;6196;48.398;11.736;2022-09-06T17:29:02;5.13;;;2.60;;
12267;SDS011;6196;48.398;11.736;2022-09-06T17:31:29;7.67;;;3.00;;